Terminal Aerodrome Forecast
Issued by NWS Charleston, WV

Current Version | Previous Version | Text Only | Print | Product List | Glossary Off
Versions: 1 2 3 4 5 6 7 8 9 10 11 12 13 14 15 16 17 18 19 20 21 22 23 24

768
FTUS41 KRLX 221456 AAA
TAFBKW
TAF AMD
KBKW 221456Z 2215/2312 33010G16KT P6SM BKN015
     FM221900 33009G15KT P6SM SCT015
     FM222100 33008KT P6SM SCT025
     FM230200 34004KT P6SM FEW015
     FM230800 00000KT P6SM FEW250=

USA.gov is the U.S. government's official web portal to all federal, state and local government web resources and services.